createdAt,value
2023-05-04T00:00:01.335Z,0.00
2023-05-04T00:10:02.313Z,0.00
2023-05-04T00:20:01.091Z,0.00
2023-05-04T00:30:01.972Z,0.00
2023-05-04T00:40:03.210Z,0.00
2023-05-04T00:50:01.110Z,0.00
2023-05-04T01:00:03.452Z,0.00
2023-05-04T01:10:00.451Z,0.00
2023-05-04T01:20:02.908Z,0.00
2023-05-04T01:30:01.513Z,0.00
2023-05-04T01:40:01.813Z,0.00
2023-05-04T01:50:01.723Z,0.00
2023-05-04T02:00:01.226Z,0.00
2023-05-04T02:10:01.343Z,0.00
2023-05-04T02:20:00.392Z,0.00
2023-05-04T02:30:01.764Z,0.00
2023-05-04T02:40:01.521Z,0.00
2023-05-04T02:50:02.146Z,0.11
2023-05-04T03:00:01.670Z,1.13
2023-05-04T03:10:01.502Z,6.23
2023-05-04T03:20:02.429Z,11.67
2023-05-04T03:30:02.030Z,41.67
2023-05-04T03:40:01.505Z,100.00
2023-05-04T03:50:00.983Z,180.00
2023-05-04T04:00:00.982Z,540.42
2023-05-04T04:10:01.460Z,351.67
2023-05-04T04:20:01.072Z,858.75
2023-05-04T04:30:02.073Z,493.33
2023-05-04T04:40:01.011Z,551.67
2023-05-04T04:50:01.314Z,605.00
2023-05-04T05:00:01.269Z,651.67
2023-05-04T05:10:01.326Z,696.67
2023-05-04T05:20:00.404Z,726.67
2023-05-04T05:30:01.110Z,1525.00
2023-05-04T05:40:01.258Z,791.67
2023-05-04T05:50:03.301Z,793.33
2023-05-04T06:00:00.405Z,818.33
2023-05-04T06:10:01.458Z,858.33
2023-05-04T06:20:01.278Z,876.67
2023-05-04T06:30:01.463Z,1813.33
2023-05-04T06:40:03.570Z,1886.67
2023-05-04T06:50:00.482Z,898.33
2023-05-04T07:00:02.023Z,1834.17
2023-05-04T07:10:01.105Z,930.00
2023-05-04T07:20:01.957Z,1036.67
2023-05-04T07:30:01.651Z,1088.33
2023-05-04T07:40:00.987Z,1136.67
2023-05-04T07:50:01.083Z,2355.00
2023-05-04T08:00:01.710Z,1248.33
2023-05-04T08:10:01.257Z,2773.33
2023-05-04T08:20:00.942Z,1406.67
2023-05-04T08:30:01.084Z,1463.33
2023-05-04T08:40:01.171Z,1465.00
2023-05-04T08:50:01.896Z,3161.67
2023-05-04T09:00:00.979Z,1833.33
2023-05-04T09:10:01.110Z,1991.67
2023-05-04T09:20:01.134Z,2418.33
2023-05-04T09:40:01.117Z,2796.67
2023-05-04T09:50:01.283Z,5920.00
2023-05-04T10:00:01.006Z,6421.25
2023-05-04T10:10:01.891Z,7026.25
2023-05-04T10:20:01.185Z,4076.67
2023-05-04T10:30:00.444Z,9354.58
2023-05-04T10:40:01.054Z,25107.92
2023-05-04T10:50:01.086Z,25582.50
2023-05-04T11:00:02.556Z,24123.33
2023-05-04T11:10:01.289Z,21302.92
2023-05-04T11:20:01.219Z,26824.17
2023-05-04T11:30:00.421Z,23380.00
2023-05-04T11:40:01.075Z,28906.67
2023-05-04T11:50:01.336Z,31090.00
2023-05-04T12:00:01.255Z,24132.92
2023-05-04T12:20:01.563Z,26260.83
2023-05-04T12:30:01.530Z,23105.42
2023-05-04T12:40:04.361Z,23028.33
2023-05-04T12:50:01.128Z,26771.25
2023-05-04T13:00:01.053Z,30580.83
2023-05-04T13:20:01.876Z,26410.00
2023-05-04T13:40:01.359Z,24426.67
2023-05-04T13:50:01.300Z,23226.25
2023-05-04T14:00:07.370Z,18377.50
2023-05-04T14:10:01.565Z,29681.67
2023-05-04T14:20:01.246Z,30932.50
2023-05-04T14:30:00.502Z,26401.25
2023-05-04T14:40:01.196Z,34033.33
2023-05-04T14:50:01.385Z,26587.50
2023-05-04T15:00:01.613Z,24525.42
2023-05-04T15:10:01.514Z,22051.67
2023-05-04T15:20:01.064Z,20505.83
2023-05-04T15:30:00.437Z,26301.25
2023-05-04T15:40:02.436Z,12953.33
2023-05-04T15:50:01.231Z,25755.00
2023-05-04T16:00:01.044Z,21989.58
2023-05-04T16:10:01.142Z,11378.33
2023-05-04T16:20:01.873Z,15876.67
2023-05-04T16:30:01.171Z,11618.33
2023-05-04T16:40:01.053Z,6944.17
2023-05-04T16:50:01.069Z,4668.33
2023-05-04T17:00:01.074Z,3856.67
2023-05-04T17:10:01.044Z,3852.92
2023-05-04T17:20:01.385Z,4945.83
2023-05-04T17:30:01.144Z,1825.00
2023-05-04T17:40:01.243Z,1285.42
2023-05-04T17:50:01.114Z,1039.17
2023-05-04T18:00:01.254Z,718.33
2023-05-04T18:10:01.094Z,345.42
2023-05-04T18:20:01.532Z,227.08
2023-05-04T18:30:01.092Z,110.83
2023-05-04T18:40:01.885Z,23.33
2023-05-04T18:50:01.078Z,16.25
2023-05-04T19:00:01.002Z,3.40
2023-05-04T19:10:02.607Z,0.68
2023-05-04T19:20:01.332Z,0.00
2023-05-04T19:40:01.978Z,0.00
2023-05-04T19:50:01.079Z,0.00
2023-05-04T20:00:01.981Z,0.00
2023-05-04T20:10:02.908Z,0.00
2023-05-04T20:20:01.296Z,0.00
2023-05-04T20:30:01.051Z,0.00
2023-05-04T20:40:01.971Z,0.00
2023-05-04T20:50:01.262Z,0.00
2023-05-04T21:00:02.053Z,0.00
2023-05-04T21:10:02.473Z,0.00
2023-05-04T21:20:01.616Z,0.00
2023-05-04T21:30:00.452Z,0.00
2023-05-04T21:40:01.340Z,0.00
2023-05-04T21:50:01.054Z,0.00
2023-05-04T22:00:02.673Z,0.00
2023-05-04T22:10:01.104Z,0.00
2023-05-04T22:20:01.670Z,0.00
2023-05-04T22:30:01.140Z,0.00
2023-05-04T22:40:02.214Z,0.00
2023-05-04T22:50:01.160Z,0.00
2023-05-04T23:00:01.170Z,0.00
2023-05-04T23:10:02.397Z,0.00
2023-05-04T23:40:00.389Z,0.00
2023-05-04T23:50:01.426Z,0.00
